Terminal Aerodrome Forecast
Issued by NWS

Home | Current Version | Previous Version | Text Only | Print | Product List | Glossary Off
Versions: 1 2 3 4 5 6 7 8 9 10 11 12 13 14 15 16 17 18 19 20 21 22 23 24 25 26 27 28 29 30 31 32 33 34 35 36 37 38 39 40 41 42 43 44

000
FTUS43 KGRB 060219 AAA
TAFRHI
TAF AMD
KRHI 060219Z 0602/0624 13008KT P6SM SCT008 BKN090
     FM060400 15008KT 5SM BR OVC008 WS015/18040KT
     FM061100 17008KT 5SM BR OVC005
     FM061500 19010G17KT 5SM -SHSN BKN012 OVC020
      TEMPO 0615/0619 1 1/2SM -SHSN BKN008
     FM062000 24013G22KT 6SM -SHSN BKN020 OVC035=

USA.gov is the U.S. government's official web portal to all federal, state and local government web resources and services.